Time;durP1;ratioP1;P1;durP2;ratioP2;P2;SDS_P1;SDS_P2;PMS_P1;PMS_P2;Temp;Humidity;BMP_temperature;BMP_pressure;BME280_temperature;BME280_humidity;BME280_pressure;Samples;Min_cycle;Max_cycle;Signal;HPM_P1;HPM_P2
2020/12/08 00:01:34;;;;;;;10.02;7.05;;;6.60;97.70;;;;;;4992820;28;20372;-70
2020/12/08 00:04:00;;;;;;;12.63;7.68;;;6.70;97.60;;;;;;4993221;28;20065;-70
2020/12/08 00:06:26;;;;;;;13.73;7.75;;;6.70;97.50;;;;;;4993087;28;21067;-70
2020/12/08 00:08:51;;;;;;;13.10;7.85;;;6.70;97.50;;;;;;4994274;28;20022;-70
2020/12/08 00:11:17;;;;;;;12.93;7.60;;;6.70;97.50;;;;;;4992859;28;20051;-69
2020/12/08 00:13:45;;;;;;;15.20;7.85;;;6.70;97.40;;;;;;4992896;28;20039;-70
2020/12/08 00:16:11;;;;;;;12.13;7.90;;;6.60;97.80;;;;;;4992664;28;20035;-69
2020/12/08 00:18:37;;;;;;;61.63;12.20;;;6.70;97.90;;;;;;4992708;28;20121;-70
2020/12/08 00:21:03;;;;;;;31.20;10.57;;;6.60;97.60;;;;;;4994011;28;20507;-69
2020/12/08 00:23:28;;;;;;;14.57;8.50;;;6.70;97.70;;;;;;4992573;28;20121;-70
2020/12/08 00:25:54;;;;;;;14.63;7.55;;;6.60;97.70;;;;;;4991981;28;20341;-70
2020/12/08 00:28:20;;;;;;;10.80;7.00;;;6.70;97.60;;;;;;4992476;28;20030;-71
2020/12/08 00:30:45;;;;;;;14.15;7.72;;;6.70;97.70;;;;;;4991771;28;20464;-70
2020/12/08 00:33:11;;;;;;;14.15;8.07;;;6.70;97.50;;;;;;4992916;28;20022;-70
2020/12/08 00:35:37;;;;;;;14.23;8.00;;;6.80;97.60;;;;;;4993995;28;20022;-70
2020/12/08 00:38:02;;;;;;;10.65;6.60;;;6.80;97.50;;;;;;4992455;28;20035;-71
2020/12/08 00:40:28;;;;;;;12.13;6.97;;;6.70;97.30;;;;;;4992509;28;20030;-71
2020/12/08 00:42:54;;;;;;;11.70;7.40;;;6.80;97.30;;;;;;4992536;28;20038;-71
2020/12/08 00:45:19;;;;;;;13.00;7.80;;;6.90;97.30;;;;;;4992585;28;20034;-70
2020/12/08 00:47:48;;;;;;;11.00;6.85;;;6.90;97.20;;;;;;4994087;28;20392;-70
2020/12/08 00:50:14;;;;;;;12.25;8.38;;;6.90;97.30;;;;;;4992204;28;20034;-70
2020/12/08 00:52:40;;;;;;;13.32;7.75;;;6.90;97.20;;;;;;4992115;28;20054;-70
2020/12/08 00:55:07;;;;;;;12.35;7.78;;;6.90;97.20;;;;;;4991968;28;20295;-70
2020/12/08 00:57:33;;;;;;;12.50;7.37;;;6.90;97.40;;;;;;4992382;28;20030;-70
2020/12/08 00:59:59;;;;;;;12.35;7.90;;;6.90;97.40;;;;;;4993741;28;20092;-69
2020/12/08 01:02:26;;;;;;;11.50;7.60;;;6.80;97.20;;;;;;4991965;28;20421;-69
2020/12/08 01:04:51;;;;;;;10.82;6.93;;;6.70;97.20;;;;;;4992378;28;20077;-69
2020/12/08 01:07:17;;;;;;;12.82;7.80;;;6.80;97.40;;;;;;4992024;28;20436;-70
2020/12/08 01:09:44;;;;;;;13.10;7.32;;;6.80;97.60;;;;;;4992224;28;20034;-69
2020/12/08 01:12:09;;;;;;;12.95;7.22;;;6.80;97.50;;;;;;4992063;28;20056;-70
2020/12/08 01:14:35;;;;;;;13.95;8.07;;;6.80;97.60;;;;;;4993523;28;20026;-69
2020/12/08 01:17:02;;;;;;;11.65;7.43;;;6.80;97.40;;;;;;4992141;28;20034;-69
2020/12/08 01:19:27;;;;;;;12.55;8.40;;;6.90;97.30;;;;;;4992295;28;20074;-70
2020/12/08 01:21:54;;;;;;;16.45;8.48;;;6.90;97.20;;;;;;4992226;28;20073;-69
2020/12/08 01:24:20;;;;;;;15.57;8.55;;;6.90;97.10;;;;;;4991987;28;20045;-68
2020/12/08 01:26:46;;;;;;;12.05;8.07;;;6.80;97.10;;;;;;4992477;28;20461;-70
2020/12/08 01:29:12;;;;;;;12.43;7.68;;;6.80;97.00;;;;;;4991802;28;20073;-70
2020/12/08 01:31:38;;;;;;;11.80;7.65;;;6.80;97.10;;;;;;4990979;28;20382;-70
2020/12/08 01:34:04;;;;;;;15.27;9.02;;;6.80;97.00;;;;;;4986434;28;20394;-70
2020/12/08 01:36:30;;;;;;;13.70;8.30;;;6.80;96.90;;;;;;4992043;28;20452;-69
2020/12/08 01:38:55;;;;;;;13.82;8.77;;;6.80;97.00;;;;;;4993428;28;20326;-70
2020/12/08 01:41:21;;;;;;;14.75;8.68;;;6.80;97.00;;;;;;4993711;28;20125;-70
2020/12/08 01:43:52;;;;;;;13.07;8.18;;;6.70;97.00;;;;;;4994634;28;20026;-69
2020/12/08 01:46:20;;;;;;;14.45;8.50;;;6.70;97.00;;;;;;4994461;28;20022;-70
2020/12/08 01:48:47;;;;;;;16.55;9.70;;;6.70;97.00;;;;;;4995472;28;20461;-70
2020/12/08 01:51:22;;;;;;;16.92;9.18;;;6.80;97.10;;;;;;4994590;28;20034;-69
2020/12/08 01:53:50;;;;;;;13.85;8.35;;;6.80;97.10;;;;;;4996788;28;20468;-70
2020/12/08 01:56:16;;;;;;;19.90;9.35;;;6.80;97.10;;;;;;4995390;28;20046;-71
2020/12/08 01:58:42;;;;;;;15.75;8.50;;;6.80;97.00;;;;;;4995459;28;20038;-70
2020/12/08 02:01:10;;;;;;;15.77;9.18;;;6.80;96.90;;;;;;4994837;28;20038;-69
2020/12/08 02:03:37;;;;;;;15.70;8.80;;;6.90;96.90;;;;;;4995008;28;20062;-70
2020/12/08 02:06:02;;;;;;;21.50;9.15;;;6.90;96.90;;;;;;4996639;28;20364;-69
2020/12/08 02:08:37;;;;;;;17.40;9.02;;;6.90;96.80;;;;;;4995183;28;20038;-69
2020/12/08 02:11:03;;;;;;;17.45;9.13;;;6.80;96.90;;;;;;4995316;28;20038;-69
2020/12/08 02:13:29;;;;;;;19.35;10.07;;;6.90;96.90;;;;;;4995163;28;20042;-69
2020/12/08 02:15:56;;;;;;;15.73;8.73;;;6.90;96.90;;;;;;4994838;28;20294;-69
2020/12/08 02:18:22;;;;;;;16.00;8.77;;;6.90;97.00;;;;;;4993927;28;20066;-69
2020/12/08 02:20:59;;;;;;;19.00;9.88;;;6.90;96.80;;;;;;4996724;28;20106;-71
2020/12/08 02:23:25;;;;;;;16.60;9.07;;;6.90;96.90;;;;;;4995054;28;20038;-70
2020/12/08 02:25:56;;;;;;;19.58;9.32;;;6.80;96.90;;;;;;4995314;28;20356;-69
2020/12/08 02:28:22;;;;;;;13.50;8.40;;;6.80;97.10;;;;;;4995012;28;20031;-70
2020/12/08 02:30:48;;;;;;;17.83;9.15;;;6.90;97.00;;;;;;4994531;28;20416;-69
2020/12/08 02:33:13;;;;;;;20.88;9.32;;;6.90;96.90;;;;;;4994516;28;20463;-70
2020/12/08 02:35:39;;;;;;;18.88;9.15;;;6.90;96.80;;;;;;4996152;28;20050;-70
2020/12/08 02:38:05;;;;;;;17.38;9.07;;;6.90;97.00;;;;;;4994621;28;20038;-69
2020/12/08 02:40:31;;;;;;;22.77;9.07;;;6.90;97.10;;;;;;4994708;28;20456;-70
2020/12/08 02:42:56;;;;;;;23.33;9.27;;;6.90;96.90;;;;;;4994556;28;20038;-69
2020/12/08 02:45:22;;;;;;;16.75;8.48;;;7.00;96.90;;;;;;4994951;28;20027;-69
2020/12/08 02:47:47;;;;;;;19.00;9.15;;;6.90;97.00;;;;;;4995826;28;20090;-70
2020/12/08 02:50:16;;;;;;;20.02;9.45;;;7.00;97.00;;;;;;4994428;28;20081;-70
2020/12/08 02:52:42;;;;;;;22.40;9.32;;;7.10;96.90;;;;;;4992089;28;20046;-70
2020/12/08 02:55:07;;;;;;;17.33;9.35;;;7.10;96.70;;;;;;4994255;28;20118;-70
2020/12/08 02:57:33;;;;;;;19.15;9.00;;;7.10;96.70;;;;;;4994261;28;20097;-71
2020/12/08 02:59:59;;;;;;;20.70;9.02;;;7.10;96.70;;;;;;4995858;28;20030;-69
2020/12/08 03:02:25;;;;;;;18.10;8.93;;;7.20;96.70;;;;;;4994124;28;20382;-69
2020/12/08 03:04:51;;;;;;;14.30;8.57;;;7.00;96.70;;;;;;4994244;28;20030;-71
2020/12/08 03:07:16;;;;;;;17.88;8.02;;;7.00;97.10;;;;;;4993964;28;20366;-69
2020/12/08 03:09:42;;;;;;;15.52;8.60;;;7.00;96.70;;;;;;4993761;28;20369;-71
2020/12/08 03:12:12;;;;;;;15.82;8.07;;;7.00;96.60;;;;;;4994164;28;20085;-69
2020/12/08 03:14:37;;;;;;;13.95;7.63;;;7.00;96.60;;;;;;4995497;28;20463;-69
2020/12/08 03:17:05;;;;;;;16.85;8.50;;;7.10;96.80;;;;;;4993730;28;20042;-70
2020/12/08 03:19:31;;;;;;;17.30;7.82;;;7.10;96.80;;;;;;4993961;28;20201;-69
2020/12/08 03:21:56;;;;;;;16.73;8.55;;;6.90;96.80;;;;;;4993685;28;20113;-69
2020/12/08 03:24:23;;;;;;;14.48;8.25;;;6.90;97.00;;;;;;4993798;28;20041;-70
2020/12/08 03:26:48;;;;;;;14.02;8.20;;;6.90;97.00;;;;;;4995287;28;20384;-70
2020/12/08 03:29:14;;;;;;;14.85;8.55;;;6.90;96.90;;;;;;4992696;28;20042;-70
2020/12/08 03:31:39;;;;;;;13.45;7.82;;;6.80;96.90;;;;;;4993554;28;20129;-70
2020/12/08 03:34:05;;;;;;;16.40;7.90;;;6.90;97.00;;;;;;4993701;28;20034;-70
2020/12/08 03:36:31;;;;;;;19.13;8.50;;;6.90;97.10;;;;;;4993492;28;20405;-68
2020/12/08 03:38:58;;;;;;;16.70;8.05;;;6.90;97.00;;;;;;4994988;28;20019;-69
2020/12/08 03:41:24;;;;;;;13.35;7.10;;;6.80;97.10;;;;;;4993053;28;20065;-70
2020/12/08 03:43:53;;;;;;;17.33;9.25;;;6.90;97.00;;;;;;4993278;28;20034;-70
2020/12/08 03:46:25;;;;;;;16.02;8.82;;;6.90;96.90;;;;;;4993265;28;20022;-70
2020/12/08 03:48:52;;;;;;;15.77;8.68;;;6.80;96.90;;;;;;4992170;28;20065;-70
2020/12/08 03:51:19;;;;;;;14.38;8.63;;;6.80;96.70;;;;;;4992396;28;20057;-71
2020/12/08 03:53:45;;;;;;;16.25;9.18;;;6.80;96.70;;;;;;4994538;28;20409;-70
2020/12/08 03:56:18;;;;;;;16.67;8.65;;;7.00;96.70;;;;;;4992880;28;20035;-69
2020/12/08 03:58:44;;;;;;;13.45;8.95;;;7.00;96.70;;;;;;4992947;28;20046;-69
2020/12/08 04:01:21;;;;;;;15.48;8.77;;;7.00;96.50;;;;;;4991864;28;20125;-69
2020/12/08 04:03:47;;;;;;;14.23;8.57;;;7.00;96.40;;;;;;4991322;28;20054;-70
2020/12/08 04:06:13;;;;;;;15.32;8.98;;;6.90;96.40;;;;;;4992951;28;20097;-70
2020/12/08 04:08:46;;;;;;;16.80;9.30;;;6.90;96.90;;;;;;4994323;28;20507;-69
2020/12/08 04:11:16;;;;;;;16.48;8.45;;;6.90;96.60;;;;;;4992732;28;20081;-70
2020/12/08 04:13:42;;;;;;;16.48;8.85;;;6.90;96.60;;;;;;4992816;28;20042;-70
2020/12/08 04:16:14;;;;;;;15.38;8.20;;;6.90;96.40;;;;;;4992481;28;20048;-70
2020/12/08 04:18:40;;;;;;;15.27;8.63;;;6.90;96.50;;;;;;4991777;28;20034;-69
2020/12/08 04:21:07;;;;;;;16.00;8.82;;;7.00;96.40;;;;;;4993212;28;20026;-70
2020/12/08 04:23:32;;;;;;;15.65;8.23;;;7.00;96.30;;;;;;4991764;28;20027;-70
2020/12/08 04:25:58;;;;;;;19.35;9.52;;;6.90;96.30;;;;;;4991587;28;20053;-69
2020/12/08 04:28:24;;;;;;;14.48;8.32;;;7.00;96.30;;;;;;4992410;28;20026;-69
2020/12/08 04:30:49;;;;;;;18.15;9.38;;;6.90;96.30;;;;;;4992476;28;20034;-69
2020/12/08 04:33:15;;;;;;;18.85;9.38;;;6.90;96.20;;;;;;4992505;28;20027;-70
2020/12/08 04:35:42;;;;;;;13.85;8.45;;;6.90;96.20;;;;;;4993966;28;20057;-73
2020/12/08 04:38:09;;;;;;;14.73;8.50;;;6.90;96.20;;;;;;4992447;28;20445;-70
2020/12/08 04:40:36;;;;;;;16.63;9.43;;;6.90;96.10;;;;;;4992581;28;20068;-70
2020/12/08 04:43:04;;;;;;;18.58;8.32;;;6.90;96.10;;;;;;4992443;28;20030;-70
2020/12/08 04:45:30;;;;;;;15.40;9.07;;;6.90;96.10;;;;;;4992089;28;20356;-69
2020/12/08 04:48:06;;;;;;;15.65;9.15;;;7.00;96.00;;;;;;4993949;28;20456;-69
2020/12/08 04:50:32;;;;;;;18.55;9.55;;;7.00;96.10;;;;;;4992462;28;20030;-70
2020/12/08 04:52:58;;;;;;;18.90;9.55;;;7.00;96.10;;;;;;4992248;28;20070;-69
2020/12/08 04:55:24;;;;;;;15.10;8.93;;;7.10;96.10;;;;;;4992276;28;20026;-69
2020/12/08 04:57:55;;;;;;;16.00;8.80;;;6.90;95.90;;;;;;4991281;28;20081;-70
2020/12/08 05:00:21;;;;;;;20.42;9.52;;;6.80;96.00;;;;;;4991066;28;20026;-70
2020/12/08 05:02:55;;;;;;;17.20;9.65;;;6.70;96.10;;;;;;4992436;28;20049;-68
2020/12/08 05:05:25;;;;;;;16.95;10.05;;;6.80;96.20;;;;;;4991998;28;20034;-71
2020/12/08 05:07:51;;;;;;;18.02;9.45;;;6.80;96.10;;;;;;4992068;28;20088;-70
2020/12/08 05:10:27;;;;;;;18.83;9.88;;;6.80;96.30;;;;;;4992033;28;20121;-69
2020/12/08 05:12:55;;;;;;;14.63;8.95;;;6.90;95.90;;;;;;4991944;28;20105;-71
2020/12/08 05:15:20;;;;;;;16.48;9.90;;;6.90;95.90;;;;;;4992636;28;20089;-69
2020/12/08 05:17:46;;;;;;;21.55;11.10;;;6.90;95.80;;;;;;4997541;28;20274;-68
2020/12/08 05:20:14;;;;;;;18.17;10.30;;;7.00;95.80;;;;;;4995837;28;20034;-69
2020/12/08 05:22:55;;;;;;;14.60;9.55;;;7.00;95.60;;;;;;4996169;28;20038;-69
2020/12/08 05:25:22;;;;;;;20.55;10.13;;;7.10;95.70;;;;;;4995908;28;20058;-70
2020/12/08 05:27:51;;;;;;;18.40;10.45;;;7.00;95.80;;;;;;4995955;28;20062;-70
2020/12/08 05:30:17;;;;;;;19.15;9.80;;;7.00;95.80;;;;;;4996160;28;20077;-69
2020/12/08 05:32:43;;;;;;;20.48;11.07;;;7.00;95.70;;;;;;4996120;28;20026;-68
2020/12/08 05:35:17;;;;;;;20.05;11.20;;;6.90;95.70;;;;;;4995512;28;20463;-68
2020/12/08 05:37:45;;;;;;;24.67;12.05;;;6.80;95.60;;;;;;4995585;28;20452;-70
2020/12/08 05:40:12;;;;;;;19.75;10.30;;;6.80;95.70;;;;;;4995429;28;20031;-69
2020/12/08 05:42:39;;;;;;;21.08;10.32;;;6.70;95.70;;;;;;4995198;28;20149;-69
2020/12/08 05:45:12;;;;;;;19.30;11.23;;;6.70;96.00;;;;;;4997020;28;20041;-70
2020/12/08 05:47:43;;;;;;;19.92;11.05;;;6.80;95.90;;;;;;4995573;28;20081;-70
2020/12/08 05:50:09;;;;;;;20.25;11.20;;;6.90;95.70;;;;;;4993184;28;20449;-69
2020/12/08 05:52:38;;;;;;;19.13;10.70;;;6.90;95.70;;;;;;4995373;28;20062;-70
2020/12/08 05:55:06;;;;;;;19.13;11.02;;;6.90;95.70;;;;;;4993903;28;20551;-69
2020/12/08 05:57:32;;;;;;;23.92;11.50;;;6.90;95.70;;;;;;4994115;28;20050;-71
2020/12/08 05:59:59;;;;;;;21.10;11.43;;;6.70;95.70;;;;;;4996811;28;20049;-69
2020/12/08 06:02:31;;;;;;;20.33;11.20;;;6.70;95.80;;;;;;4995238;28;20133;-70
2020/12/08 06:04:58;;;;;;;20.80;11.65;;;6.70;95.90;;;;;;4995468;28;20045;-70
2020/12/08 06:07:31;;;;;;;21.20;11.10;;;6.50;96.00;;;;;;4995179;28;20030;-70
2020/12/08 06:10:11;;;;;;;17.90;10.65;;;6.60;96.10;;;;;;4995312;28;20360;-69
2020/12/08 06:12:38;;;;;;;23.30;11.10;;;6.50;96.10;;;;;;4993962;28;20483;-70
2020/12/08 06:15:23;;;;;;;23.75;12.80;;;6.40;96.20;;;;;;4996465;28;20023;-71
2020/12/08 06:17:50;;;;;;;19.83;11.50;;;6.50;96.30;;;;;;4994757;28;20030;-70
2020/12/08 06:20:17;;;;;;;21.15;11.88;;;6.50;96.30;;;;;;4994817;28;20100;-69
2020/12/08 06:23:04;;;;;;;21.40;11.63;;;6.50;96.30;;;;;;4993628;28;20048;-69
2020/12/08 06:25:29;;;;;;;23.13;11.02;;;6.50;96.20;;;;;;4994392;28;20049;-69
2020/12/08 06:28:03;;;;;;;25.75;12.90;;;6.50;96.40;;;;;;4993730;28;20038;-70
2020/12/08 06:30:29;;;;;;;32.03;12.07;;;6.50;96.40;;;;;;4994984;28;20034;-71
2020/12/08 06:32:55;;;;;;;23.73;12.75;;;6.50;96.40;;;;;;4995988;28;20026;-69
2020/12/08 06:35:21;;;;;;;22.58;12.65;;;6.60;96.40;;;;;;4994418;28;20046;-70
2020/12/08 06:37:55;;;;;;;23.48;12.23;;;6.60;96.40;;;;;;4993667;28;20456;-70
2020/12/08 06:40:23;;;;;;;21.58;12.77;;;6.60;96.40;;;;;;4994195;28;20038;-70
2020/12/08 06:42:50;;;;;;;23.40;13.23;;;6.60;96.40;;;;;;4994798;28;20050;-69
2020/12/08 06:45:22;;;;;;;21.33;11.23;;;6.60;96.40;;;;;;4994938;28;20026;-70
2020/12/08 06:47:49;;;;;;;26.90;13.23;;;6.70;96.30;;;;;;4995924;28;20030;-71
2020/12/08 06:50:26;;;;;;;23.48;12.18;;;6.70;96.40;;;;;;5011073;28;20415;-70
2020/12/08 06:52:56;;;;;;;24.73;12.63;;;6.70;96.30;;;;;;5013970;28;20061;-72
2020/12/08 06:55:22;;;;;;;26.48;13.25;;;6.70;96.40;;;;;;5013997;28;20476;-69
2020/12/08 06:57:48;;;;;;;20.75;12.80;;;6.70;96.50;;;;;;5014052;28;20026;-71
2020/12/08 07:00:14;;;;;;;23.08;11.13;;;6.80;96.40;;;;;;5013866;28;20033;-70
2020/12/08 07:02:51;;;;;;;27.20;12.55;;;6.80;96.30;;;;;;5015272;28;20038;-69
2020/12/08 07:05:19;;;;;;;28.00;13.25;;;6.70;96.30;;;;;;5013796;28;20034;-69
2020/12/08 07:07:46;;;;;;;24.35;12.82;;;6.80;96.70;;;;;;5013099;28;20420;-70
2020/12/08 07:10:12;;;;;;;23.85;13.02;;;6.80;96.40;;;;;;5013690;28;20100;-70
2020/12/08 07:12:42;;;;;;;27.38;14.30;;;6.90;96.30;;;;;;5013206;28;20034;-70
2020/12/08 07:15:11;;;;;;;27.70;13.32;;;6.90;96.30;;;;;;5013853;28;20026;-69
2020/12/08 07:17:37;;;;;;;25.92;15.25;;;6.80;96.30;;;;;;5015138;28;20010;-70
2020/12/08 07:20:05;;;;;;;30.67;13.80;;;6.80;96.20;;;;;;5013708;28;20045;-70
2020/12/08 07:22:41;;;;;;;23.75;14.02;;;6.70;96.30;;;;;;5013915;28;20054;-70
2020/12/08 07:25:07;;;;;;;22.83;13.02;;;6.70;96.40;;;;;;5013568;28;20030;-72
2020/12/08 07:27:34;;;;;;;25.05;13.25;;;6.70;96.30;;;;;;5013315;28;20368;-70
2020/12/08 07:30:02;;;;;;;27.25;14.02;;;6.80;96.40;;;;;;5015023;28;20155;-70
2020/12/08 07:32:28;;;;;;;28.83;14.95;;;6.70;96.30;;;;;;5013425;28;20034;-71
2020/12/08 07:34:54;;;;;;;26.42;13.80;;;6.80;96.40;;;;;;5013547;28;20060;-69
2020/12/08 07:37:19;;;;;;;29.85;13.27;;;6.90;96.30;;;;;;5013499;28;20611;-70
2020/12/08 07:39:45;;;;;;;28.60;13.65;;;6.90;96.30;;;;;;5012960;28;20050;-71
2020/12/08 07:42:11;;;;;;;26.33;14.38;;;6.80;96.30;;;;;;5013036;28;20309;-71
2020/12/08 07:44:36;;;;;;;27.02;14.18;;;6.80;96.30;;;;;;5014756;28;20360;-71
2020/12/08 07:47:10;;;;;;;31.20;14.05;;;6.80;96.30;;;;;;5012994;28;20057;-72
2020/12/08 07:49:40;;;;;;;25.35;14.07;;;6.90;96.70;;;;;;5013294;28;20460;-71
2020/12/08 07:52:05;;;;;;;25.60;13.88;;;6.90;96.30;;;;;;5011802;28;20038;-72
2020/12/08 07:54:31;;;;;;;25.85;14.20;;;7.00;96.30;;;;;;5011995;28;20044;-70
2020/12/08 07:56:57;;;;;;;26.13;14.75;;;6.90;96.40;;;;;;5013479;28;20355;-69
2020/12/08 07:59:22;;;;;;;26.95;13.55;;;6.90;96.30;;;;;;5012891;28;20526;-69
2020/12/08 08:01:48;;;;;;;27.13;14.32;;;6.90;96.30;;;;;;5012633;28;20049;-69
2020/12/08 08:04:14;;;;;;;24.27;13.02;;;6.90;96.30;;;;;;5012538;28;20118;-70
2020/12/08 08:06:39;;;;;;;23.48;13.45;;;6.90;96.60;;;;;;5012439;28;20026;-71
2020/12/08 08:09:06;;;;;;;25.58;12.88;;;7.00;96.40;;;;;;5014617;28;20026;-71
2020/12/08 08:11:34;;;;;;;24.50;12.27;;;7.00;96.30;;;;;;5012779;28;20058;-71
2020/12/08 08:14:00;;;;;;;26.98;11.63;;;7.10;96.40;;;;;;5012460;28;20099;-71
2020/12/08 08:16:26;;;;;;;21.75;12.82;;;7.10;96.30;;;;;;5011636;28;20046;-71
2020/12/08 08:18:51;;;;;;;31.10;13.55;;;7.10;96.40;;;;;;5012333;28;20129;-70
2020/12/08 08:21:19;;;;;;;22.42;12.70;;;7.10;96.30;;;;;;5011442;28;20025;-70
2020/12/08 08:23:45;;;;;;;32.90;16.42;;;7.00;96.10;;;;;;5013915;28;20018;-71
2020/12/08 08:26:11;;;;;;;26.05;12.07;;;7.10;96.30;;;;;;5012457;28;20048;-72
2020/12/08 08:28:36;;;;;;;25.73;12.57;;;7.10;96.10;;;;;;5012446;28;20034;-73
2020/12/08 08:31:02;;;;;;;24.95;12.95;;;7.20;96.20;;;;;;5012160;28;20022;-70
2020/12/08 08:33:28;;;;;;;23.45;12.65;;;7.10;96.40;;;;;;5012108;28;20030;-69
2020/12/08 08:35:55;;;;;;;28.55;13.25;;;7.20;96.20;;;;;;5013820;28;20034;-70
2020/12/08 08:38:26;;;;;;;20.33;12.18;;;7.30;96.20;;;;;;5011225;28;20042;-71
2020/12/08 08:40:55;;;;;;;25.85;12.63;;;7.30;96.10;;;;;;5011984;28;20049;-84
2020/12/08 08:43:21;;;;;;;26.77;12.25;;;7.20;96.20;;;;;;5011083;28;20034;-70
2020/12/08 08:45:46;;;;;;;29.20;12.98;;;7.30;96.20;;;;;;5011555;28;20088;-69
2020/12/08 08:48:12;;;;;;;20.65;11.52;;;7.20;96.20;;;;;;5012017;28;20448;-69
2020/12/08 08:50:38;;;;;;;22.58;12.20;;;7.40;96.20;;;;;;5011692;28;20029;-70
2020/12/08 08:53:05;;;;;;;23.75;12.23;;;7.40;96.00;;;;;;5011884;28;20065;-70
2020/12/08 08:55:31;;;;;;;65.07;27.67;;;7.40;96.10;;;;;;5012332;28;20136;-70
2020/12/08 08:57:56;;;;;;;34.75;17.20;;;7.40;96.10;;;;;;5012094;28;20737;-69
2020/12/08 09:00:22;;;;;;;23.63;13.75;;;7.20;96.10;;;;;;5011790;28;20448;-69
2020/12/08 09:02:48;;;;;;;22.25;11.68;;;7.30;96.10;;;;;;5012312;28;20444;-69
2020/12/08 09:05:14;;;;;;;22.50;13.13;;;7.20;96.10;;;;;;5011644;28;20072;-69
2020/12/08 09:07:40;;;;;;;23.70;11.57;;;7.20;96.20;;;;;;5012138;28;20041;-70
2020/12/08 09:10:06;;;;;;;21.73;12.40;;;7.30;96.30;;;;;;5011766;28;20026;-70
2020/12/08 09:12:32;;;;;;;25.38;14.02;;;7.40;96.20;;;;;;5012065;28;20352;-69
2020/12/08 09:15:00;;;;;;;24.75;13.10;;;7.50;96.10;;;;;;5013423;28;20041;-69
2020/12/08 09:17:26;;;;;;;26.98;13.60;;;7.50;96.00;;;;;;5011585;28;20057;-70
2020/12/08 09:19:53;;;;;;;22.13;13.55;;;7.60;96.10;;;;;;5011521;28;20368;-69
2020/12/08 09:22:18;;;;;;;27.45;12.70;;;7.70;96.10;;;;;;5010850;28;20061;-70
2020/12/08 09:24:44;;;;;;;24.55;13.57;;;7.60;95.90;;;;;;5011772;28;20038;-69
2020/12/08 09:27:12;;;;;;;29.42;13.13;;;7.70;95.80;;;;;;5011030;28;20411;-70
2020/12/08 09:29:38;;;;;;;;;;;7.80;95.60;;;;;;5013587;28;20030;-72
2020/12/08 09:32:03;;;;;;;22.25;11.70;;;7.80;95.50;;;;;;5011442;28;19926;-68
2020/12/08 09:34:29;;;;;;;20.73;11.60;;;7.80;95.50;;;;;;5011260;28;20121;-70
2020/12/08 09:36:56;;;;;;;23.15;13.02;;;7.80;95.40;;;;;;5011138;28;20418;-70
2020/12/08 09:39:22;;;;;;;26.95;12.27;;;7.80;95.40;;;;;;5011503;28;20072;-70
2020/12/08 09:41:48;;;;;;;23.65;13.40;;;7.80;95.30;;;;;;5012802;28;20337;-70
2020/12/08 09:44:14;;;;;;;28.67;13.27;;;7.90;95.30;;;;;;5011632;28;20041;-69
2020/12/08 09:46:41;;;;;;;26.95;13.48;;;7.90;95.30;;;;;;5011607;28;20447;-71
2020/12/08 09:49:07;;;;;;;27.73;12.85;;;7.90;95.30;;;;;;5011345;28;20073;-69
2020/12/08 09:51:34;;;;;;;27.10;13.32;;;7.80;95.30;;;;;;5011120;28;20030;-70
2020/12/08 09:54:00;;;;;;;24.88;12.93;;;7.80;95.10;;;;;;5012106;28;20308;-70
2020/12/08 09:56:25;;;;;;;22.92;12.10;;;7.90;95.00;;;;;;5011293;28;20044;-70
2020/12/08 09:58:55;;;;;;;29.08;13.18;;;7.90;95.00;;;;;;5011482;28;20026;-70
2020/12/08 10:01:29;;;;;;;20.67;12.40;;;8.00;94.80;;;;;;5011911;28;20076;-69
2020/12/08 10:03:54;;;;;;;19.67;11.95;;;7.90;94.80;;;;;;5014982;28;20097;-69
2020/12/08 10:06:21;;;;;;;22.17;12.60;;;7.90;94.80;;;;;;5014704;28;20033;-70
2020/12/08 10:08:47;;;;;;;34.35;15.30;;;8.00;94.80;;;;;;5016499;28;20022;-70
2020/12/08 10:11:13;;;;;;;24.65;12.45;;;7.90;94.80;;;;;;5013784;28;20045;-69
2020/12/08 10:13:40;;;;;;;23.05;13.02;;;7.90;94.80;;;;;;5014988;28;20034;-70
2020/12/08 10:16:06;;;;;;;33.15;15.25;;;7.90;94.80;;;;;;5015022;28;20037;-69
2020/12/08 10:18:32;;;;;;;25.05;13.02;;;8.00;94.80;;;;;;5014763;28;20030;-69
2020/12/08 10:20:58;;;;;;;25.33;13.30;;;7.90;94.60;;;;;;5015434;28;20048;-70
2020/12/08 10:23:24;;;;;;;28.23;14.63;;;8.00;94.50;;;;;;5014198;28;20041;-71
2020/12/08 10:25:50;;;;;;;22.13;13.10;;;8.00;94.50;;;;;;5013494;28;20072;-72
2020/12/08 10:28:15;;;;;;;20.13;12.98;;;8.10;94.50;;;;;;5014576;28;20045;-72
2020/12/08 10:30:41;;;;;;;27.05;14.80;;;8.10;94.40;;;;;;5013998;28;20026;-71
2020/12/08 10:33:07;;;;;;;23.67;13.25;;;8.20;94.40;;;;;;5014473;28;20507;-70
2020/12/08 10:35:33;;;;;;;22.23;13.15;;;8.20;94.20;;;;;;5015883;28;20029;-71
2020/12/08 10:37:59;;;;;;;21.40;12.90;;;8.20;94.20;;;;;;5014177;28;20030;-71
2020/12/08 10:40:24;;;;;;;24.48;13.35;;;8.20;94.20;;;;;;5014021;28;20486;-72
2020/12/08 10:42:50;;;;;;;28.02;15.35;;;8.20;94.20;;;;;;5014221;28;20113;-71
2020/12/08 10:45:16;;;;;;;27.52;15.38;;;8.20;94.20;;;;;;5014135;28;20029;-71
2020/12/08 10:47:41;;;;;;;31.92;13.95;;;8.20;94.10;;;;;;5015539;28;20113;-70
2020/12/08 10:50:07;;;;;;;23.80;13.93;;;8.20;94.00;;;;;;5013941;28;20057;-71
2020/12/08 10:52:33;;;;;;;32.47;15.48;;;8.20;93.90;;;;;;5013581;28;20054;-72
2020/12/08 10:54:58;;;;;;;31.27;14.57;;;8.30;93.80;;;;;;5012891;28;20034;-70
2020/12/08 10:57:24;;;;;;;30.58;15.15;;;8.30;93.70;;;;;;5013403;28;20426;-72
2020/12/08 10:59:50;;;;;;;31.70;15.43;;;8.50;93.70;;;;;;5015363;28;20463;-72
2020/12/08 11:02:15;;;;;;;26.85;14.20;;;8.50;93.60;;;;;;5013372;28;20530;-72
2020/12/08 11:04:41;;;;;;;28.85;14.90;;;8.60;93.50;;;;;;5013448;28;20044;-72
2020/12/08 11:07:07;;;;;;;24.00;14.27;;;8.50;93.40;;;;;;5013487;28;20348;-70
2020/12/08 11:09:32;;;;;;;30.88;14.65;;;8.40;93.40;;;;;;5013283;28;20041;-73
2020/12/08 11:11:58;;;;;;;28.40;14.80;;;8.60;93.50;;;;;;5015163;28;20025;-73
2020/12/08 11:14:24;;;;;;;29.90;13.90;;;8.60;93.20;;;;;;5012796;28;20044;-72
2020/12/08 11:16:49;;;;;;;29.63;14.55;;;8.80;93.60;;;;;;5013294;28;20064;-71
2020/12/08 11:19:15;;;;;;;26.05;14.68;;;8.90;93.20;;;;;;5013548;28;20068;-70
2020/12/08 11:21:41;;;;;;;24.65;14.45;;;9.00;93.20;;;;;;5013156;28;20148;-77
2020/12/08 11:24:08;;;;;;;26.35;15.25;;;9.10;93.10;;;;;;5013332;28;20500;-71
2020/12/08 11:26:34;;;;;;;26.23;15.07;;;9.50;93.30;;;;;;5014852;28;20033;-72
2020/12/08 11:29:00;;;;;;;31.98;17.20;;;10.00;92.00;;;;;;5012081;28;20030;-71
2020/12/08 11:31:26;;;;;;;27.58;14.85;;;10.40;91.20;;;;;;5013174;28;20042;-72
2020/12/08 11:33:52;;;;;;;24.50;13.93;;;10.80;90.80;;;;;;5013115;28;20034;-73
2020/12/08 11:36:18;;;;;;;26.58;15.02;;;11.30;90.50;;;;;;5012690;28;20029;-72
2020/12/08 11:38:44;;;;;;;23.95;15.13;;;11.40;89.50;;;;;;5014638;28;20034;-73
2020/12/08 11:41:10;;;;;;;23.70;14.02;;;11.40;88.90;;;;;;5012553;28;20053;-73
2020/12/08 11:43:36;;;;;;;26.15;14.98;;;11.20;88.80;;;;;;5012950;28;20041;-72
2020/12/08 11:46:03;;;;;;;25.15;15.40;;;11.20;89.20;;;;;;5012794;28;20044;-73
2020/12/08 11:48:29;;;;;;;28.60;16.77;;;11.20;89.00;;;;;;5011413;28;20033;-73
2020/12/08 11:50:56;;;;;;;24.27;15.02;;;11.20;89.20;;;;;;5014087;28;20247;-73
2020/12/08 11:53:23;;;;;;;24.98;15.27;;;11.10;88.70;;;;;;5012684;28;20352;-73
2020/12/08 11:55:50;;;;;;;28.20;15.73;;;11.00;89.40;;;;;;5010579;28;20044;-73
2020/12/08 11:58:16;;;;;;;27.10;16.67;;;10.80;89.20;;;;;;5011656;28;20447;-71
2020/12/08 12:00:41;;;;;;;30.90;16.45;;;10.70;89.60;;;;;;5011373;28;20072;-73
2020/12/08 12:03:07;;;;;;;27.13;16.30;;;10.80;89.60;;;;;;5012422;28;20324;-71
2020/12/08 12:05:33;;;;;;;25.98;16.20;;;10.70;90.00;;;;;;5014153;28;20328;-71
2020/12/08 12:07:59;;;;;;;30.30;17.10;;;10.60;89.80;;;;;;5012246;28;20121;-72
2020/12/08 12:10:25;;;;;;;24.95;15.80;;;10.50;89.80;;;;;;5012241;28;20037;-70
2020/12/08 12:12:51;;;;;;;35.33;17.13;;;10.40;90.10;;;;;;5012502;28;20045;-69
2020/12/08 12:15:16;;;;;;;25.38;15.77;;;10.40;90.30;;;;;;5012394;28;20036;-71
2020/12/08 12:17:42;;;;;;;31.58;17.13;;;10.60;90.20;;;;;;5013817;28;20034;-70
2020/12/08 12:20:08;;;;;;;36.50;16.70;;;10.70;90.20;;;;;;5012269;28;20471;-72
2020/12/08 12:22:35;;;;;;;27.17;17.00;;;10.70;90.40;;;;;;5012169;28;20538;-72
2020/12/08 12:25:04;;;;;;;29.73;16.77;;;10.60;90.10;;;;;;5012284;28;20057;-73
2020/12/08 12:27:30;;;;;;;33.30;17.97;;;10.70;90.00;;;;;;5012051;28;20379;-70
2020/12/08 12:29:56;;;;;;;28.70;16.35;;;10.80;90.00;;;;;;5013476;28;20029;-71
2020/12/08 12:32:22;;;;;;;28.73;16.02;;;10.60;90.10;;;;;;5012102;28;20115;-70
2020/12/08 12:34:47;;;;;;;28.90;16.40;;;10.40;90.40;;;;;;5011943;28;20034;-70
2020/12/08 12:37:14;;;;;;;39.03;19.48;;;10.40;90.30;;;;;;5011037;28;20041;-71
2020/12/08 12:39:40;;;;;;;32.72;17.13;;;10.30;90.70;;;;;;5011813;28;20022;-70